Time;durP1;ratioP1;P1;durP2;ratioP2;P2;SDS_P1;SDS_P2;PMS_P1;PMS_P2;Temp;Humidity;BMP_temperature;BMP_pressure;BME280_temperature;BME280_humidity;BME280_pressure;Samples;Min_cycle;Max_cycle;Signal;HPM_P1;HPM_P2
2024/04/19 00:00:43;;;;;;;8.20;4.30;;;;;;;6.42;100.00;69098.00;5491450;26;19998;-57
2024/04/19 00:03:13;;;;;;;11.93;4.80;;;;;;;6.45;100.00;69106.09;5523898;26;20008;-57
2024/04/19 00:05:41;;;;;;;11.23;4.63;;;;;;;6.46;100.00;69109.88;5490449;26;20489;-58
2024/04/19 00:08:11;;;;;;;10.88;4.72;;;;;;;6.42;100.00;69108.38;5523958;26;20048;-58
2024/04/19 00:10:42;;;;;;;13.32;5.22;;;;;;;6.35;100.00;69098.22;5523911;26;20004;-57
2024/04/19 00:13:12;;;;;;;9.18;4.97;;;;;;;6.35;100.00;69092.47;5523721;26;19997;-57
2024/04/19 00:15:42;;;;;;;11.52;5.10;;;;;;;6.33;100.00;69090.16;5523816;26;20040;-58
2024/04/19 00:18:12;;;;;;;12.85;5.13;;;;;;;6.32;100.00;69089.56;5523251;26;19994;-58
2024/04/19 00:20:44;;;;;;;11.18;5.78;;;;;;;6.25;100.00;69087.16;5522849;26;20042;-58
2024/04/19 00:23:15;;;;;;;12.10;5.75;;;;;;;6.25;100.00;69086.59;5523555;26;19993;-59
2024/04/19 00:25:45;;;;;;;9.45;5.50;;;;;;;6.28;100.00;69086.91;5522190;26;20036;-60
2024/04/19 00:28:16;;;;;;;13.93;5.97;;;;;;;6.28;100.00;69087.50;5518962;26;20001;-53
2024/04/19 00:30:48;;;;;;;9.00;4.75;;;;;;;6.29;100.00;69083.47;5521575;26;20002;-51
2024/04/19 00:33:16;;;;;;;13.15;5.50;;;;;;;6.25;100.00;69084.59;5523635;26;20004;-49
2024/04/19 00:35:46;;;;;;;9.38;4.72;;;;;;;6.19;100.00;69082.19;5516956;26;19994;-55
2024/04/19 00:38:14;;;;;;;10.18;4.65;;;;;;;6.21;100.00;69079.34;5520590;25;20414;-58
2024/04/19 00:40:47;;;;;;;10.63;4.78;;;;;;;6.18;100.00;69079.03;5488541;26;20013;-58
2024/04/19 00:43:15;;;;;;;9.50;4.40;;;;;;;6.22;100.00;69083.13;5519336;25;20092;-58
2024/04/19 00:45:45;;;;;;;9.05;5.03;;;;;;;6.19;100.00;69077.63;5489830;26;19997;-58
2024/04/19 00:48:15;;;;;;;11.25;5.32;;;;;;;6.17;100.00;69077.28;5522199;26;20009;-58
2024/04/19 00:50:47;;;;;;;11.32;5.40;;;;;;;6.22;100.00;69083.13;5516683;26;20001;-58
2024/04/19 00:53:17;;;;;;;10.75;5.38;;;;;;;6.21;100.00;69079.34;5521175;26;19998;-59
2024/04/19 00:55:51;;;;;;;10.38;5.50;;;;;;;6.17;100.00;69077.28;5523118;26;20457;-58
2024/04/19 00:58:19;;;;;;;10.45;4.85;;;;;;;6.20;100.00;69081.38;5519600;26;19998;-57
2024/04/19 01:00:50;;;;;;;10.48;6.30;;;;;;;6.23;100.00;69084.25;5518228;26;20005;-57
2024/04/19 01:03:18;;;;;;;10.48;5.88;;;;;;;6.23;100.00;69084.84;5518722;26;20009;-60
2024/04/19 01:05:48;;;;;;;10.57;5.75;;;;;;;6.23;100.00;69077.09;5516271;26;20072;-58
2024/04/19 01:08:16;;;;;;;10.38;5.80;;;;;;;6.23;100.00;69084.84;5521323;26;20013;-59
2024/04/19 01:10:49;;;;;;;12.38;6.20;;;;;;;6.21;100.00;69082.53;5522343;26;20343;-58
2024/04/19 01:13:17;;;;;;;11.98;6.15;;;;;;;6.24;100.00;69085.44;5522926;26;20042;-60
2024/04/19 01:15:47;;;;;;;10.80;5.85;;;;;;;6.28;100.00;69089.50;5520883;26;20005;-59
2024/04/19 01:18:16;;;;;;;9.50;6.35;;;;;;;6.23;100.00;69082.25;5516843;26;20025;-58
2024/04/19 01:20:47;;;;;;;10.07;6.20;;;;;;;6.21;100.00;69079.34;5516705;26;20005;-58
2024/04/19 01:23:17;;;;;;;9.73;5.88;;;;;;;6.20;100.00;69081.38;5519069;26;19994;-49
2024/04/19 01:25:51;;;;;;;13.63;6.70;;;;;;;6.21;100.00;69084.53;5519044;26;20001;-51
2024/04/19 01:28:21;;;;;;;12.52;7.05;;;;;;;6.24;100.00;69085.44;5522642;26;20073;-50
2024/04/19 01:30:52;;;;;;;10.38;6.22;;;;;;;6.28;100.00;69090.09;5522262;26;20002;-59
2024/04/19 01:33:19;;;;;;;11.68;6.53;;;;;;;6.31;100.00;69087.81;5522368;25;20464;-58
2024/04/19 01:35:50;;;;;;;12.23;6.95;;;;;;;6.24;100.00;69083.44;5522064;25;19997;-58
2024/04/19 01:38:18;;;;;;;10.77;6.97;;;;;;;6.22;100.00;69083.69;5522342;26;20365;-58
2024/04/19 01:40:48;;;;;;;10.68;6.45;;;;;;;6.24;100.00;69085.44;5521832;26;20405;-59
2024/04/19 01:43:16;;;;;;;11.75;6.85;;;;;;;6.24;100.00;69085.44;5520469;26;20029;-57
2024/04/19 01:45:49;;;;;;;10.98;6.57;;;;;;;6.28;100.00;69089.50;5516668;26;19997;-59
2024/04/19 01:48:16;;;;;;;10.90;6.70;;;;;;;6.28;100.00;69089.50;5521355;26;20001;-59
2024/04/19 01:50:47;;;;;;;10.82;7.03;;;;;;;6.28;100.00;69089.50;5521843;26;20440;-59
2024/04/19 01:53:14;;;;;;;11.00;6.85;;;;;;;6.29;100.00;69088.09;5522147;26;19998;-58
2024/04/19 01:55:45;;;;;;;10.88;6.75;;;;;;;6.34;100.00;69097.06;5521838;26;19997;-58
2024/04/19 01:58:12;;;;;;;11.90;6.68;;;;;;;6.34;100.00;69093.88;5519349;26;20447;-58
2024/04/19 02:00:43;;;;;;;11.65;7.00;;;;;;;6.35;100.00;69098.22;5516395;26;20424;-58
2024/04/19 02:03:13;;;;;;;10.48;6.32;;;;;;;6.36;100.00;69096.78;5519202;26;20074;-58
2024/04/19 02:05:44;;;;;;;12.27;6.50;;;;;;;6.34;100.00;69094.47;5521164;26;20363;-58
2024/04/19 02:08:12;;;;;;;11.45;7.13;;;;;;;6.34;100.00;69093.88;5521790;26;20008;-59
2024/04/19 02:10:42;;;;;;;12.27;6.93;;;;;;;6.35;100.00;69100.25;5521675;26;20009;-53
2024/04/19 02:13:10;;;;;;;11.75;6.60;;;;;;;6.34;100.00;69094.47;5521665;25;20025;-49
2024/04/19 02:15:41;;;;;;;13.45;7.22;;;;;;;6.38;100.00;69095.94;5521347;26;20062;-49
2024/04/19 02:18:12;;;;;;;13.80;7.40;;;;;;;6.45;100.00;69104.09;5521404;26;20002;-49
2024/04/19 02:20:44;;;;;;;11.88;7.45;;;;;;;6.40;100.00;69100.88;5521335;26;20562;-50
2024/04/19 02:23:15;;;;;;;13.73;6.97;;;;;;;6.41;100.00;69104.63;5486063;26;20006;-60
2024/04/19 02:25:43;;;;;;;13.80;7.55;;;;;;;6.38;100.00;69101.13;5517241;25;20001;-49
2024/04/19 02:31:03;;;;;;;10.70;7.35;;;;;;;6.42;100.00;69106.38;5524970;26;19993;-58
2024/04/19 02:33:39;;;;;;;13.18;6.90;;;;;;;6.46;100.00;69110.44;5524937;26;20433;-58
2024/04/19 02:36:10;;;;;;;13.48;7.03;;;;;;;6.47;100.00;69111.59;5525417;26;20097;-59
2024/04/19 02:38:41;;;;;;;11.65;7.30;;;;;;;6.46;100.00;69110.44;5524964;26;20049;-58
2024/04/19 02:41:11;;;;;;;10.05;6.43;;;;;;;6.48;100.00;69109.59;5523453;26;20437;-58
2024/04/19 02:43:42;;;;;;;10.90;6.55;;;;;;;6.42;100.00;69103.19;5521479;26;20009;-58
2024/04/19 02:46:12;;;;;;;9.88;6.13;;;;;;;6.45;100.00;69108.69;5519798;26;20029;-59
2024/04/19 02:48:45;;;;;;;11.02;6.18;;;;;;;6.46;100.00;69110.44;5520940;26;20403;-58
2024/04/19 02:51:19;;;;;;;12.98;6.40;;;;;;;6.46;100.00;69107.84;5524659;26;20441;-58
2024/04/19 02:53:49;;;;;;;10.65;6.13;;;;;;;6.46;100.00;69107.28;5524994;26;19993;-58
2024/04/19 02:56:20;;;;;;;11.52;6.03;;;;;;;6.45;100.00;69106.69;5490031;26;20021;-58
2024/04/19 02:58:50;;;;;;;11.07;6.50;;;;;;;6.45;100.00;69104.09;5488499;26;20004;-58
2024/04/19 03:01:20;;;;;;;10.15;6.13;;;;;;;6.48;100.00;69107.00;5523650;25;19993;-59
2024/04/19 03:03:53;;;;;;;9.90;6.68;;;;;;;6.48;100.00;69109.59;5524815;25;20402;-59
2024/04/19 03:06:24;;;;;;;10.43;6.75;;;;;;;6.49;100.00;69115.94;5524584;26;20008;-59
2024/04/19 03:08:57;;;;;;;11.93;6.60;;;;;;;6.50;100.00;69109.91;5524577;26;19998;-59
2024/04/19 03:11:28;;;;;;;12.93;7.15;;;;;;;6.46;100.00;69110.44;5524711;25;20589;-59
2024/04/19 03:13:58;;;;;;;11.73;6.55;;;;;;;6.46;100.00;69107.84;5524766;26;20066;-60
2024/04/19 03:16:29;;;;;;;10.40;7.20;;;;;;;6.49;100.00;69113.94;5524491;26;19993;-60
2024/04/19 03:19:02;;;;;;;11.43;6.40;;;;;;;6.52;100.00;69116.84;5524461;26;20383;-59
2024/04/19 03:21:32;;;;;;;11.23;6.55;;;;;;;6.48;100.00;69105.00;5524579;26;19998;-59
2024/04/19 03:24:02;;;;;;;12.93;6.60;;;;;;;6.47;100.00;69109.00;5491903;26;20001;-59
2024/04/19 03:26:32;;;;;;;11.15;6.93;;;;;;;6.49;100.00;69115.94;5520424;26;20001;-59
2024/04/19 03:29:06;;;;;;;11.50;6.32;;;;;;;6.48;100.00;69112.78;5520623;26;19994;-58
2024/04/19 03:31:37;;;;;;;9.20;5.93;;;;;;;6.50;100.00;69115.09;5520151;26;20004;-59
2024/04/19 03:34:09;;;;;;;9.65;5.80;;;;;;;6.48;100.00;69107.00;5523500;26;20465;-59
2024/04/19 03:36:43;;;;;;;10.85;6.43;;;;;;;6.45;100.00;69106.09;5524425;26;19993;-59
2024/04/19 03:39:13;;;;;;;9.32;6.43;;;;;;;6.47;100.00;69109.00;5524297;26;20040;-59
2024/04/19 03:41:44;;;;;;;10.80;6.88;;;;;;;6.46;100.00;69107.28;5523194;25;20009;-59
2024/04/19 03:47:00;;;;;;;9.30;6.70;;;;;;;6.46;100.00;69112.44;5523922;26;19994;-59
2024/04/19 03:49:33;;;;;;;12.00;7.05;;;;;;;6.47;100.00;69111.59;5519900;26;20440;-60
2024/04/19 03:52:04;;;;;;;9.38;6.88;;;;;;;6.52;100.00;69120.00;5518458;26;20004;-59
2024/04/19 03:54:34;;;;;;;10.48;7.05;;;;;;;6.46;100.00;69110.44;5521638;26;20017;-59
2024/04/19 03:57:04;;;;;;;10.88;7.70;;;;;;;6.45;100.00;69111.88;5523903;25;20013;-59
2024/04/19 03:59:35;;;;;;;11.85;8.43;;;;;;;6.48;100.00;69109.59;5523982;26;19997;-60
2024/04/19 04:02:05;;;;;;;9.68;7.18;;;;;;;6.47;100.00;69111.59;5487067;26;19993;-59
2024/04/19 04:04:38;;;;;;;10.95;7.68;;;;;;;6.48;100.00;69115.38;5519521;26;20340;-59
2024/04/19 04:07:09;;;;;;;11.93;8.63;;;;;;;6.48;100.00;69112.19;5518068;26;20013;-59
2024/04/19 04:09:39;;;;;;;12.07;8.65;;;;;;;6.49;100.00;69113.34;5490184;26;20004;-58
2024/04/19 04:12:12;;;;;;;13.25;8.90;;;;;;;6.50;100.00;69117.69;5519896;26;19997;-59
2024/04/19 04:14:42;;;;;;;10.55;8.50;;;;;;;6.49;100.00;69111.34;5519593;26;19990;-58
2024/04/19 04:17:13;;;;;;;11.93;8.70;;;;;;;6.49;100.00;69119.13;5519096;26;19989;-59
2024/04/19 04:19:46;;;;;;;12.93;8.60;;;;;;;6.51;100.00;69111.06;5518715;26;19989;-58
2024/04/19 04:22:16;;;;;;;12.00;9.15;;;;;;;6.52;100.00;69114.84;5521681;26;20005;-58
2024/04/19 04:24:46;;;;;;;10.93;7.97;;;;;;;6.54;100.00;69116.56;5523632;26;19994;-58
2024/04/19 04:27:17;;;;;;;11.38;8.40;;;;;;;6.54;100.00;69119.16;5523781;25;20065;-59
2024/04/19 04:29:47;;;;;;;11.40;8.68;;;;;;;6.58;100.00;69123.81;5523697;26;20082;-60
2024/04/19 04:32:18;;;;;;;12.05;8.43;;;;;;;6.58;100.00;69121.22;5523579;26;20050;-60
2024/04/19 04:34:51;;;;;;;10.68;8.00;;;;;;;6.58;100.00;69126.41;5523684;26;19997;-59
2024/04/19 04:37:22;;;;;;;10.70;8.30;;;;;;;6.58;100.00;69123.81;5522471;26;19997;-58
2024/04/19 04:39:52;;;;;;;11.15;8.30;;;;;;;6.58;100.00;69119.22;5522690;26;20001;-59
2024/04/19 04:42:25;;;;;;;10.48;7.65;;;;;;;6.59;100.00;69122.97;5522782;26;20448;-58
2024/04/19 04:44:56;;;;;;;10.50;7.38;;;;;;;6.61;100.00;69124.72;5523027;26;20077;-59
2024/04/19 04:47:26;;;;;;;10.10;7.10;;;;;;;6.62;100.00;69125.31;5522716;26;20436;-58
2024/04/19 04:49:59;;;;;;;9.80;6.93;;;;;;;6.60;100.00;69126.72;5517362;26;20553;-59
2024/04/19 04:52:29;;;;;;;8.98;6.40;;;;;;;6.63;100.00;69129.06;5519191;26;20001;-59
2024/04/19 04:55:00;;;;;;;9.13;6.32;;;;;;;6.65;100.00;69129.38;5522930;26;20001;-59
2024/04/19 04:57:30;;;;;;;9.05;6.53;;;;;;;6.69;100.00;69131.44;5522421;26;20009;-59
2024/04/19 05:00:00;;;;;;;10.35;6.45;;;;;;;6.72;100.00;69139.53;5522566;26;20013;-60
2024/04/19 05:02:31;;;;;;;10.95;6.45;;;;;;;6.72;100.00;69142.13;5522861;26;20008;-50
2024/04/19 05:05:04;;;;;;;8.02;5.93;;;;;;;6.74;100.00;69136.69;5490245;26;19993;-49
2024/04/19 05:07:35;;;;;;;9.15;6.30;;;;;;;6.75;100.00;69143.59;5523091;25;20012;-50
2024/04/19 05:10:07;;;;;;;;;;;;;;;6.81;100.00;69150.00;5550045;25;20033;-51
2024/04/19 05:12:40;;;;;;;;;;;;;;;6.82;100.00;69150.59;5523134;25;19991;-49
2024/04/19 05:15:12;;;;;;;8.73;5.68;;;;;;;6.81;100.00;69144.25;5522951;25;19923;-51
2024/04/19 05:17:43;;;;;;;8.57;5.97;;;;;;;6.87;100.00;69156.41;5520939;25;19997;-51
2024/04/19 05:20:18;;;;;;;8.63;5.70;;;;;;;6.85;100.00;69152.06;5522818;26;19994;-52
2024/04/19 05:22:48;;;;;;;7.53;5.50;;;;;;;6.87;100.00;69154.41;5523087;26;20009;-51
2024/04/19 05:25:19;;;;;;;8.25;5.43;;;;;;;6.89;100.00;69158.75;5489860;26;20038;-50
2024/04/19 05:27:49;;;;;;;9.43;5.90;;;;;;;6.91;100.00;69164.25;5522870;26;20042;-49
2024/04/19 05:30:20;;;;;;;9.82;6.68;;;;;;;7.00;100.00;69163.16;5523001;26;20005;-51
2024/04/19 05:32:50;;;;;;;9.77;6.18;;;;;;;7.00;100.00;69165.78;5522974;26;19989;-52
2024/04/19 05:35:23;;;;;;;8.77;6.18;;;;;;;7.04;100.00;69175.63;5522500;26;20445;-54
2024/04/19 05:37:57;;;;;;;9.52;6.35;;;;;;;7.08;100.00;69183.44;5523107;26;20017;-53
2024/04/19 05:40:28;;;;;;;8.90;6.50;;;;;;;7.11;100.00;69178.56;5522930;26;19997;-49
2024/04/19 05:42:59;;;;;;;9.45;6.30;;;;;;;7.14;100.00;69187.25;5522789;26;20453;-51
2024/04/19 05:45:30;;;;;;;9.82;6.68;;;;;;;7.18;100.00;69188.72;5522641;26;19993;-51
2024/04/19 05:48:00;;;;;;;8.45;6.53;;;;;;;7.23;100.00;69199.75;5522332;25;20469;-52
2024/04/19 05:50:33;;;;;;;9.63;6.78;;;;;;;7.25;100.00;69200.06;5522039;26;20016;-52
2024/04/19 05:53:04;;;;;;;9.93;6.53;;;;;;;7.31;100.00;69205.84;5522171;26;19998;-52
2024/04/19 05:55:34;;;;;;;9.90;7.07;;;;;;;7.37;100.00;69213.44;5521900;26;20012;-53
2024/04/19 05:58:04;;;;;;;11.02;7.43;;;;;;;7.41;100.00;69212.31;5522064;26;20001;-53
2024/04/19 06:00:35;;;;;;;10.85;7.38;;;;;;;7.46;100.00;69220.75;5521589;26;20004;-49
2024/04/19 06:03:06;;;;;;;9.57;7.45;;;;;;;7.50;100.00;69228.00;5521862;25;20013;-54
2024/04/19 06:05:39;;;;;;;10.45;8.15;;;;;;;7.57;100.00;69233.53;5525185;26;20001;-50
2024/04/19 06:08:11;;;;;;;12.25;8.25;;;;;;;7.57;100.00;69233.53;5525724;26;20003;-49
2024/04/19 06:10:41;;;;;;;12.80;8.10;;;;;;;7.61;100.00;69238.19;5525280;26;20511;-51
2024/04/19 06:13:11;;;;;;;11.07;8.20;;;;;;;7.61;100.00;69240.22;5525888;26;20012;-50
2024/04/19 06:15:42;;;;;;;12.45;8.27;;;;;;;7.65;100.00;69244.88;5525183;26;20013;-51
2024/04/19 06:18:13;;;;;;;13.00;8.98;;;;;;;7.75;100.00;69248.16;5449444;26;20031;-50
2024/04/19 06:20:48;;;;;;;13.95;9.18;;;;;;;7.77;100.00;69258.84;5436508;26;20003;-50
2024/04/19 06:23:18;;;;;;;13.50;8.27;;;;;;;7.85;100.00;69261.81;5416385;26;20019;-51
2024/04/19 06:25:49;;;;;;;16.02;9.05;;;;;;;7.85;100.00;69264.97;5426959;26;20462;-50
2024/04/19 06:28:21;;;;;;;15.40;8.15;;;;;;;7.90;100.00;69270.81;5428863;26;19999;-49
2024/04/19 06:30:51;;;;;;;12.25;7.30;;;;;;;7.91;100.00;69279.78;5424747;26;20002;-52
2024/04/19 06:33:26;;;;;;;9.65;5.25;;;;;;;7.93;100.00;69276.31;5444406;26;20002;-50
2024/04/19 06:36:05;;;;;;;9.25;4.43;;;;;;;7.93;100.00;69274.31;5435579;26;20064;-52
2024/04/19 06:38:40;;;;;;;7.85;3.65;;;;;;;7.95;100.00;69276.06;5416154;26;20035;-48
2024/04/19 06:41:13;;;;;;;8.02;3.55;;;;;;;7.98;100.00;69278.97;5423583;26;20011;-51
2024/04/19 06:43:43;;;;;;;9.13;3.75;;;;;;;8.01;100.00;69288.22;5415853;26;20011;-49
2024/04/19 06:46:13;;;;;;;7.82;3.85;;;;;;;8.05;100.00;69284.53;5417817;26;20013;-48
2024/04/19 06:48:44;;;;;;;12.13;4.05;;;;;;;8.08;100.00;69291.19;5415955;26;20035;-52
2024/04/19 06:51:17;;;;;;;10.38;3.92;;;;;;;8.12;100.00;69292.66;5428614;26;20092;-49
2024/04/19 06:53:47;;;;;;;11.95;4.20;;;;;;;8.18;100.00;69302.25;5413620;26;20130;-50
2024/04/19 06:56:18;;;;;;;11.60;4.65;;;;;;;8.28;100.00;69313.91;5413214;26;20023;-48
2024/04/19 06:58:48;;;;;;;11.75;4.13;;;;;;;8.37;100.00;69326.41;5450757;26;20026;-54
2024/04/19 07:01:19;;;;;;;9.70;4.30;;;;;;;8.43;100.00;69332.81;5440319;26;20003;-49
2024/04/19 07:03:54;;;;;;;10.15;4.65;;;;;;;8.53;100.00;69343.91;5415726;26;20461;-51
2024/04/19 07:06:27;;;;;;;12.95;4.63;;;;;;;8.53;100.00;69341.88;5432670;26;20452;-52
2024/04/19 07:09:13;;;;;;;11.98;4.63;;;;;;;8.61;100.00;69350.63;5416070;26;20000;-49
2024/04/19 07:11:44;;;;;;;12.02;5.45;;;;;;;8.69;100.00;69365.16;5417943;26;19999;-51
2024/04/19 07:14:14;;;;;;;13.63;5.00;;;;;;;8.76;100.00;69362.31;5449696;26;20055;-50
2024/04/19 07:16:47;;;;;;;15.43;5.65;;;;;;;8.81;100.00;69375.97;5448348;26;20012;-49
2024/04/19 07:19:20;;;;;;;12.13;5.30;;;;;;;8.87;100.00;69379.78;5451191;26;20453;-52
2024/04/19 07:21:53;;;;;;;14.90;5.38;;;;;;;8.87;100.00;69380.34;5450572;26;20006;-51
2024/04/19 07:24:24;;;;;;;15.48;4.72;;;;;;;8.94;100.00;69385.91;5449547;26;20005;-53
2024/04/19 07:26:56;;;;;;;12.63;4.03;;;;;;;8.97;100.00;69394.03;5446583;26;20035;-51
2024/04/19 07:29:26;;;;;;;13.35;5.45;;;;;;;9.00;100.00;69394.34;5446985;26;19995;-50
2024/04/19 07:31:57;;;;;;;13.85;5.35;;;;;;;9.03;100.00;69395.25;5445365;26;21485;-50
2024/04/19 07:34:27;;;;;;;12.25;4.40;;;;;;;9.08;100.00;69403.66;5450457;26;20019;-48
2024/04/19 07:37:01;;;;;;;13.63;4.18;;;;;;;9.13;100.00;69406.88;5451046;26;20028;-49
2024/04/19 07:39:32;;;;;;;12.38;4.05;;;;;;;9.22;100.00;69416.81;5451292;26;20010;-52
2024/04/19 07:42:04;;;;;;;13.68;3.85;;;;;;;9.31;100.00;69424.69;5451254;26;20006;-49
2024/04/19 07:44:35;;;;;;;12.65;3.70;;;;;;;9.34;100.00;69435.41;5451094;26;20002;-49
2024/04/19 07:47:08;;;;;;;14.20;3.55;;;;;;;9.33;100.00;69429.06;5451028;26;19999;-50
2024/04/19 07:49:38;;;;;;;;;;;;;;;9.30;100.00;69429.31;5451688;26;19999;-49
2024/04/19 07:52:11;;;;;;;10.40;3.35;;;;;;;9.31;100.00;69432.50;5450715;26;19924;-51
2024/04/19 07:54:42;;;;;;;14.27;3.42;;;;;;;9.32;100.00;69427.88;5447959;26;20395;-49
2024/04/19 07:57:12;;;;;;;14.27;3.75;;;;;;;9.29;100.00;69424.97;5446967;26;19995;-50
2024/04/19 07:59:42;;;;;;;17.67;3.80;;;;;;;9.30;100.00;69429.31;5449302;26;20023;-49
2024/04/19 08:02:13;;;;;;;11.70;3.38;;;;;;;9.31;100.00;69437.69;5450932;26;20006;-49
2024/04/19 08:04:43;;;;;;;11.93;2.33;;;;;;;9.21;100.00;69420.84;5450708;26;20327;-51
2024/04/19 08:07:16;;;;;;;6.55;1.38;;;;;;;9.03;100.00;69392.63;5450764;26;20080;-49
2024/04/19 08:09:57;;;;;;;3.83;1.00;;;;;;;8.85;100.00;69377.44;5450731;26;19990;-51
2024/04/19 08:12:30;;;;;;;3.17;1.00;;;;;;;8.76;100.00;69364.94;5450880;26;20836;-51
2024/04/19 08:15:03;;;;;;;4.82;1.00;;;;;;;8.79;100.00;69373.63;5450725;26;19998;-52
2024/04/19 08:17:34;;;;;;;5.38;1.20;;;;;;;8.74;100.00;69367.78;5503658;26;20441;-49
2024/04/19 08:20:05;;;;;;;5.55;1.20;;;;;;;8.65;100.00;69357.91;5524149;26;20405;-50
2024/04/19 08:22:39;;;;;;;2.65;0.82;;;;;;;8.67;100.00;69351.84;5523884;26;19998;-51
2024/04/19 08:25:10;;;;;;;3.88;1.08;;;;;;;8.66;100.00;69358.47;5523666;26;20440;-51
2024/04/19 08:27:42;;;;;;;7.55;1.17;;;;;;;8.71;100.00;69362.28;5522846;26;20021;-52
2024/04/19 08:30:13;;;;;;;;;;;;;;;8.71;100.00;69359.09;5524312;26;20400;-52
2024/04/19 08:32:44;;;;;;;4.43;1.25;;;;;;;8.80;100.00;69372.19;5523572;26;19930;-52
2024/04/19 08:35:14;;;;;;;6.78;1.45;;;;;;;8.81;100.00;69373.38;5523253;26;20008;-51
2024/04/19 08:37:48;;;;;;;6.82;1.30;;;;;;;8.85;100.00;69374.81;5523423;26;20009;-52
2024/04/19 08:40:21;;;;;;;6.05;1.73;;;;;;;8.88;100.00;69380.94;5523650;26;19993;-50
2024/04/19 08:42:53;;;;;;;6.97;3.40;;;;;;;8.92;100.00;69385.59;5523516;26;20068;-50
2024/04/19 08:45:24;;;;;;;8.68;3.30;;;;;;;8.99;100.00;69387.97;5523627;26;20449;-51
2024/04/19 08:47:57;;;;;;;9.30;2.75;;;;;;;9.06;100.00;69401.34;5523528;25;20002;-53
2024/04/19 08:50:29;;;;;;;5.85;1.50;;;;;;;9.10;100.00;69403.41;5523225;26;20004;-53
2024/04/19 08:53:08;;;;;;;5.85;1.40;;;;;;;9.13;100.00;69412.09;5490771;26;20001;-49
2024/04/19 08:55:46;;;;;;;5.20;1.48;;;;;;;9.13;100.00;69410.09;5523344;26;20337;-53
2024/04/19 08:58:18;;;;;;;10.13;1.80;;;;;;;9.18;100.00;69412.72;5523281;26;20419;-49
2024/04/19 09:00:48;;;;;;;6.78;1.58;;;;;;;9.18;100.00;69414.75;5490595;26;19993;-50
2024/04/19 09:03:19;;;;;;;6.97;1.75;;;;;;;9.18;100.00;69415.31;5522488;25;20034;-52
2024/04/19 09:05:50;;;;;;;6.72;2.15;;;;;;;9.20;100.00;69414.47;5522047;26;20001;-50
2024/04/19 09:08:23;;;;;;;7.97;2.28;;;;;;;9.38;100.00;69438.06;5522272;26;20021;-51
2024/04/19 09:10:54;;;;;;;5.82;1.92;;;;;;;9.51;100.00;69450.03;5520429;26;20048;-50
2024/04/19 09:13:24;;;;;;;5.95;1.58;;;;;;;9.60;100.00;69462.56;5548097;25;20002;-50
2024/04/19 09:15:55;;;;;;;6.53;1.63;;;;;;;9.66;100.00;69468.97;5521699;26;20004;-52
2024/04/19 09:18:27;;;;;;;6.60;1.97;;;;;;;9.75;100.00;69480.03;5522967;26;20370;-52
2024/04/19 09:20:59;;;;;;;6.55;1.70;;;;;;;9.77;100.00;69484.41;5523006;26;19993;-51
2024/04/19 09:23:33;;;;;;;7.80;2.00;;;;;;;9.70;100.00;69474.22;5522566;26;20004;-52
2024/04/19 09:26:03;;;;;;;6.72;1.70;;;;;;;9.73;100.00;69480.31;5522874;26;20005;-50
2024/04/19 09:28:36;;;;;;;5.35;1.30;;;;;;;9.72;100.00;69473.94;5522659;26;19998;-50
2024/04/19 09:31:07;;;;;;;4.28;1.20;;;;;;;9.64;100.00;69470.41;5490187;26;20443;-50
2024/04/19 09:33:41;;;;;;;3.85;1.52;;;;;;;9.59;100.00;69458.78;5522790;25;20013;-51
2024/04/19 09:36:18;;;;;;;5.18;1.80;;;;;;;9.50;100.00;69445.69;5522647;26;20042;-50
2024/04/19 09:38:54;;;;;;;6.28;1.63;;;;;;;9.50;100.00;69448.84;5521061;26;20005;-50
2024/04/19 09:41:27;;;;;;;3.40;1.38;;;;;;;9.63;100.00;69466.63;5522449;26;20009;-48
2024/04/19 09:44:01;;;;;;;5.75;2.22;;;;;;;9.75;100.00;69480.03;5522798;26;20013;-48
2024/04/19 09:46:34;;;;;;;5.18;2.40;;;;;;;9.95;100.00;69502.78;5522218;26;19997;-49
2024/04/19 09:49:10;;;;;;;4.88;1.60;;;;;;;9.97;100.00;69505.13;5522315;26;20359;-49
2024/04/19 09:51:48;;;;;;;4.35;1.50;;;;;;;10.14;100.00;69523.78;5522517;26;20496;-49
2024/04/19 09:54:23;;;;;;;7.18;1.60;;;;;;;10.34;100.00;69549.16;5521513;26;20005;-48
2024/04/19 09:56:59;;;;;;;3.83;1.40;;;;;;;10.39;100.00;69549.19;5518216;26;20334;-49
2024/04/19 09:59:31;;;;;;;4.57;1.05;;;;;;;10.69;100.00;69588.88;5520188;26;19997;-48
2024/04/19 10:02:02;;;;;;;2.33;1.10;;;;;;;10.85;100.00;69612.16;5522497;26;20013;-49
2024/04/19 10:04:35;;;;;;;3.10;1.00;;;;;;;10.91;100.00;69611.34;5521842;25;20579;-48
2024/04/19 10:07:10;;;;;;;2.05;1.20;;;;;;;11.18;100.00;69644.31;5521918;26;20001;-51
2024/04/19 10:09:45;;;;;;;1.63;0.80;;;;;;;11.29;100.00;69653.97;5522335;26;19997;-51
2024/04/19 10:12:17;;;;;;;2.15;0.80;;;;;;;11.27;100.00;69651.63;5522092;26;20452;-50
2024/04/19 10:14:48;;;;;;;2.20;0.80;;;;;;;11.28;100.00;69650.19;5522007;25;20463;-48
2024/04/19 10:17:19;;;;;;;1.45;0.57;;;;;;;11.37;100.00;69663.31;5521628;26;20021;-51
2024/04/19 10:19:50;;;;;;;4.10;1.08;;;;;;;11.57;100.00;69682.88;5521793;26;20092;-51
2024/04/19 10:22:25;;;;;;;2.67;0.80;;;;;;;11.76;100.00;69707.69;5519513;26;20932;-50
2024/04/19 10:25:05;;;;;;;1.85;0.50;;;;;;;11.70;100.00;69697.47;5517297;26;20075;-49
2024/04/19 10:27:36;;;;;;;2.70;0.82;;;;;;;11.47;100.00;69674.41;5521674;26;20001;-50
2024/04/19 10:30:08;;;;;;;3.40;0.90;;;;;;;11.32;100.00;69657.47;5521713;26;20338;-50
2024/04/19 10:32:53;;;;;;;1.92;0.63;;;;;;;11.20;100.00;69644.03;5521550;26;19993;-48
2024/04/19 10:35:24;;;;;;;3.40;0.90;;;;;;;11.15;100.00;69638.19;5521550;26;20386;-49
2024/04/19 10:37:54;;;;;;;2.10;0.70;;;;;;;11.32;100.00;69660.09;5521354;26;19997;-48
2024/04/19 10:40:29;;;;;;;4.70;0.98;;;;;;;11.33;100.00;69656.03;5521524;26;19997;-49
2024/04/19 10:43:06;;;;;;;1.30;0.60;;;;;;;11.41;100.00;69672.63;5521485;26;20584;-48
2024/04/19 10:45:37;;;;;;;3.80;0.70;;;;;;;11.31;100.00;69654.25;5521221;26;20459;-47
2024/04/19 10:48:09;;;;;;;3.58;1.17;;;;;;;11.42;100.00;69668.56;5521343;26;20512;-49
2024/04/19 10:50:39;;;;;;;1.95;0.80;;;;;;;11.32;100.00;69655.44;5524309;26;20361;-50
2024/04/19 10:53:10;;;;;;;3.63;0.70;;;;;;;11.33;100.00;69659.22;5492883;26;20405;-50
2024/04/19 10:55:43;;;;;;;4.20;0.85;;;;;;;11.29;100.00;69654.56;5522429;26;19997;-60
2024/04/19 10:58:13;;;;;;;2.70;0.90;;;;;;;11.17;100.00;69643.16;5521233;26;19997;-60
2024/04/19 11:00:46;;;;;;;2.78;0.60;;;;;;;11.00;100.00;69623.88;5520765;26;19993;-60
2024/04/19 11:03:17;;;;;;;5.15;0.80;;;;;;;10.62;100.00;69578.06;5523031;26;19998;-60
2024/04/19 11:05:50;;;;;;;2.35;0.60;;;;;;;10.03;100.00;69511.53;5517997;26;19997;-60
2024/04/19 11:08:21;;;;;;;1.55;0.60;;;;;;;9.72;100.00;69475.97;5523164;26;20001;-60
2024/04/19 11:10:54;;;;;;;2.20;0.65;;;;;;;9.59;100.00;69459.34;5524458;26;20025;-60
2024/04/19 11:13:24;;;;;;;3.10;0.65;;;;;;;9.54;100.00;69458.72;5524488;25;20033;-60
2024/04/19 11:15:55;;;;;;;2.92;0.50;;;;;;;9.31;100.00;69432.50;5524313;26;20013;-60
2024/04/19 11:18:28;;;;;;;1.52;0.60;;;;;;;9.31;100.00;69429.88;5522371;26;19993;-60
2024/04/19 11:20:59;;;;;;;4.25;0.70;;;;;;;9.06;100.00;69403.94;5518418;26;20505;-60
2024/04/19 11:23:41;;;;;;;3.30;0.90;;;;;;;9.13;100.00;69412.69;5524089;26;20329;-60
2024/04/19 11:26:18;;;;;;;2.53;0.70;;;;;;;9.14;100.00;69413.25;5520371;26;20046;-60
2024/04/19 11:28:50;;;;;;;3.35;0.80;;;;;;;9.18;100.00;69417.94;5522182;26;19993;-59
2024/04/19 11:31:21;;;;;;;2.20;0.60;;;;;;;9.22;100.00;69420.00;5524084;26;19993;-60
2024/04/19 11:33:56;;;;;;;2.22;0.60;;;;;;;9.45;100.00;69443.63;5524048;26;20012;-59
2024/04/19 11:36:27;;;;;;;2.58;0.70;;;;;;;9.81;100.00;69489.06;5524200;25;19997;-60
2024/04/19 11:38:58;;;;;;;2.08;0.95;;;;;;;10.06;100.00;69512.44;5524147;26;20025;-59
2024/04/19 11:41:31;;;;;;;2.22;0.75;;;;;;;9.98;100.00;69508.91;5523885;26;20455;-60
2024/04/19 11:44:04;;;;;;;3.10;0.98;;;;;;;10.07;100.00;69518.81;5520602;26;20025;-60
2024/04/19 11:46:35;;;;;;;2.55;0.90;;;;;;;10.13;100.00;69525.81;5519468;26;20001;-60
2024/04/19 11:49:09;;;;;;;2.55;0.70;;;;;;;9.98;100.00;69506.28;5523800;26;20044;-59
2024/04/19 11:51:39;;;;;;;4.15;0.95;;;;;;;9.98;100.00;69503.69;5521133;26;20002;-60
2024/04/19 11:54:10;;;;;;;3.63;0.70;;;;;;;9.86;100.00;69494.91;5520556;26;20004;-60